Startpagina
METAR-TAF:

METAR-TAF

Vliegvelden :

San José, Costa Rica

breedte: 09-57N, lengte: 084-09W, hoogte: 994 m

Actueel weer

Dit bericht is 9 uur en het 22 minuten geleden gemaakt, om 00:00 UTC
Wind 7 kt uit het oosten
Temperatuur 22°C
Vochtigheid 73%
Druk 1015 hPa
Zicht 10 km of meer
Weinig wolken op 1000 ft
Verspreide wolken op 3000 ft
Gebroken wolken op 10000 ft

METAR: MRPV 170000Z 10007KT 9999 FEW010 SCT030 BKN100 22/17 A2997 NOSIG

Tijdstip: 03:22 (09:22 UTC)

Verwachting

Dit bericht is 4 uur en het 22 minuten geleden gemaakt, om 05:00 UTC
Verwachting geldig van 17 om 06 UTC tot 18 om 06 UTC
Wind 6 kt uit het oostzuidoosten
Zicht 10 km of meer
Weinig wolken op 3000 ft
Tijdelijke
van 17 om 19 UTC tot 17 om 23 UTC
Verspreide wolken op 1500 ft
Gebroken wolken op 9000 ft
regen

TAF: MRPV 170500Z 1706/1806 12006KT 9999 FEW030 TX27/1719Z TN19/1709Z TEMPO 1719/1723 RA SCT015 BKN090

Waarnemingen en weersverwachtingen van meer dan 4000 vliegvelden (METAR en TAF).

De beschikbare stations zijn de gele en rode punten op de kaart.

Ga met uw muis naar het station om de naam te zien.

Klik dan om waarnemingen en weersverwachtingen te zien.

kaart wijzigen: klik op de groene knoppen met een zwart kruis om in te zoomen, op de groene knop met een streepje om uit te zoomen of op de groene pijlen voor aangrenzende kaarten.


METAR-TAF: